sensor_id;sensor_type;location;lat;lon;timestamp;pressure;altitude;pressure_sealevel;temperature;humidity
788;BME280;16074;42.708;23.312;2022-07-23T00:01:03;95219.06;;;23.30;53.91
788;BME280;16074;42.708;23.312;2022-07-23T00:03:31;95220.03;;;23.19;53.95
788;BME280;16074;42.708;23.312;2022-07-23T00:06:00;95221.69;;;23.25;54.36
788;BME280;16074;42.708;23.312;2022-07-23T00:08:28;95225.97;;;23.21;54.67
788;BME280;16074;42.708;23.312;2022-07-23T00:10:56;95223.00;;;23.23;54.60
788;BME280;16074;42.708;23.312;2022-07-23T00:13:25;95223.28;;;23.21;54.78
788;BME280;16074;42.708;23.312;2022-07-23T00:15:53;95228.88;;;23.20;54.40
788;BME280;16074;42.708;23.312;2022-07-23T00:18:23;95227.81;;;23.21;55.36
788;BME280;16074;42.708;23.312;2022-07-23T00:20:52;95222.66;;;23.14;54.62
788;BME280;16074;42.708;23.312;2022-07-23T00:23:20;95231.44;;;23.10;55.12
788;BME280;16074;42.708;23.312;2022-07-23T00:25:49;95232.97;;;23.06;54.67
788;BME280;16074;42.708;23.312;2022-07-23T00:28:17;95226.97;;;22.99;55.11
788;BME280;16074;42.708;23.312;2022-07-23T00:30:46;95226.97;;;22.99;55.00
788;BME280;16074;42.708;23.312;2022-07-23T00:33:14;95225.91;;;23.00;55.13
788;BME280;16074;42.708;23.312;2022-07-23T00:35:44;95234.97;;;22.94;55.64
788;BME280;16074;42.708;23.312;2022-07-23T00:38:12;95232.25;;;22.89;55.54
788;BME280;16074;42.708;23.312;2022-07-23T00:40:41;95232.34;;;22.78;55.80
788;BME280;16074;42.708;23.312;2022-07-23T00:43:09;95236.91;;;22.77;55.72
788;BME280;16074;42.708;23.312;2022-07-23T00:45:37;95228.47;;;22.69;56.43
788;BME280;16074;42.708;23.312;2022-07-23T00:48:06;95229.22;;;22.64;56.78
788;BME280;16074;42.708;23.312;2022-07-23T00:50:35;95229.72;;;22.61;56.52
788;BME280;16074;42.708;23.312;2022-07-23T00:53:05;95229.47;;;22.63;57.10
788;BME280;16074;42.708;23.312;2022-07-23T00:55:35;95226.31;;;22.66;57.43
788;BME280;16074;42.708;23.312;2022-07-23T00:58:04;95227.84;;;22.62;57.04
788;BME280;16074;42.708;23.312;2022-07-23T01:00:33;95223.00;;;22.59;57.71
788;BME280;16074;42.708;23.312;2022-07-23T01:03:01;95227.78;;;22.57;57.39
788;BME280;16074;42.708;23.312;2022-07-23T01:05:29;95229.91;;;22.55;57.32
788;BME280;16074;42.708;23.312;2022-07-23T01:07:58;95232.56;;;22.55;58.38
788;BME280;16074;42.708;23.312;2022-07-23T01:10:28;95234.28;;;22.44;57.80
788;BME280;16074;42.708;23.312;2022-07-23T01:13:00;95225.84;;;22.52;58.34
788;BME280;16074;42.708;23.312;2022-07-23T01:15:30;95228.44;;;22.47;58.26
788;BME280;16074;42.708;23.312;2022-07-23T01:17:59;95228.84;;;22.39;58.36
788;BME280;16074;42.708;23.312;2022-07-23T01:20:29;95231.53;;;22.23;57.05
788;BME280;16074;42.708;23.312;2022-07-23T01:22:58;95234.69;;;22.20;56.72
788;BME280;16074;42.708;23.312;2022-07-23T01:25:27;95232.19;;;22.13;57.06
788;BME280;16074;42.708;23.312;2022-07-23T01:27:58;95233.81;;;22.14;57.15
788;BME280;16074;42.708;23.312;2022-07-23T01:30:27;95235.91;;;22.12;56.68
788;BME280;16074;42.708;23.312;2022-07-23T01:32:57;95226.91;;;22.18;57.45
788;BME280;16074;42.708;23.312;2022-07-23T01:35:26;95221.88;;;22.22;58.44
788;BME280;16074;42.708;23.312;2022-07-23T01:37:59;95222.84;;;22.16;58.62
788;BME280;16074;42.708;23.312;2022-07-23T01:40:27;95224.75;;;21.99;59.09
788;BME280;16074;42.708;23.312;2022-07-23T01:42:56;95222.22;;;21.92;59.87
788;BME280;16074;42.708;23.312;2022-07-23T01:45:27;95224.41;;;21.79;60.45
788;BME280;16074;42.708;23.312;2022-07-23T01:47:55;95219.72;;;21.86;60.56
788;BME280;16074;42.708;23.312;2022-07-23T01:50:24;95217.13;;;21.91;60.74
788;BME280;16074;42.708;23.312;2022-07-23T01:53:14;95225.28;;;21.84;60.60
788;BME280;16074;42.708;23.312;2022-07-23T01:55:42;95215.16;;;21.86;60.49
788;BME280;16074;42.708;23.312;2022-07-23T01:58:11;95220.69;;;21.80;60.78
788;BME280;16074;42.708;23.312;2022-07-23T02:00:39;95219.38;;;21.82;60.53
788;BME280;16074;42.708;23.312;2022-07-23T02:03:08;95225.72;;;21.76;60.72
788;BME280;16074;42.708;23.312;2022-07-23T02:05:37;95228.78;;;21.69;60.81
788;BME280;16074;42.708;23.312;2022-07-23T02:08:05;95231.53;;;21.73;60.79
788;BME280;16074;42.708;23.312;2022-07-23T02:10:37;95226.50;;;21.61;60.68
788;BME280;16074;42.708;23.312;2022-07-23T02:13:05;95223.44;;;21.41;61.00
788;BME280;16074;42.708;23.312;2022-07-23T02:15:34;95227.44;;;21.27;61.29
788;BME280;16074;42.708;23.312;2022-07-23T02:18:02;95227.06;;;21.35;61.41
788;BME280;16074;42.708;23.312;2022-07-23T02:20:31;95235.72;;;21.25;61.38
788;BME280;16074;42.708;23.312;2022-07-23T02:23:00;95229.31;;;21.26;61.80
788;BME280;16074;42.708;23.312;2022-07-23T02:25:28;95230.41;;;21.14;61.48
788;BME280;16074;42.708;23.312;2022-07-23T02:28:02;95230.34;;;20.97;62.26
788;BME280;16074;42.708;23.312;2022-07-23T02:30:30;95236.72;;;20.96;62.27
788;BME280;16074;42.708;23.312;2022-07-23T02:32:59;95229.75;;;21.07;62.81
788;BME280;16074;42.708;23.312;2022-07-23T02:35:27;95237.41;;;21.03;62.81
788;BME280;16074;42.708;23.312;2022-07-23T02:37:58;95227.53;;;21.04;62.79
788;BME280;16074;42.708;23.312;2022-07-23T02:40:28;95231.63;;;20.95;62.57
788;BME280;16074;42.708;23.312;2022-07-23T02:42:56;95233.78;;;20.81;63.12
788;BME280;16074;42.708;23.312;2022-07-23T02:45:26;95234.69;;;20.75;63.38
788;BME280;16074;42.708;23.312;2022-07-23T02:47:54;95238.13;;;20.76;63.42
788;BME280;16074;42.708;23.312;2022-07-23T02:50:23;95235.28;;;20.54;64.14
788;BME280;16074;42.708;23.312;2022-07-23T02:52:54;95242.72;;;20.52;64.27
788;BME280;16074;42.708;23.312;2022-07-23T02:55:24;95242.47;;;20.65;64.70
788;BME280;16074;42.708;23.312;2022-07-23T02:57:53;95253.47;;;20.69;63.74
788;BME280;16074;42.708;23.312;2022-07-23T03:00:21;95260.13;;;20.55;64.48
788;BME280;16074;42.708;23.312;2022-07-23T03:02:51;95261.06;;;20.49;64.63
788;BME280;16074;42.708;23.312;2022-07-23T03:05:19;95260.38;;;20.42;65.25
788;BME280;16074;42.708;23.312;2022-07-23T03:07:48;95257.81;;;20.47;65.27
788;BME280;16074;42.708;23.312;2022-07-23T03:10:16;95263.94;;;20.47;65.43
788;BME280;16074;42.708;23.312;2022-07-23T03:12:45;95258.84;;;20.46;65.57
788;BME280;16074;42.708;23.312;2022-07-23T03:15:13;95264.53;;;20.49;65.68
788;BME280;16074;42.708;23.312;2022-07-23T03:17:41;95267.56;;;20.53;65.76
788;BME280;16074;42.708;23.312;2022-07-23T03:20:11;95272.66;;;20.54;65.92
788;BME280;16074;42.708;23.312;2022-07-23T03:22:39;95272.31;;;20.51;66.17
788;BME280;16074;42.708;23.312;2022-07-23T03:25:08;95272.53;;;20.61;65.23
788;BME280;16074;42.708;23.312;2022-07-23T03:27:37;95274.16;;;20.50;65.96
788;BME280;16074;42.708;23.312;2022-07-23T03:30:06;95277.41;;;20.52;65.70
788;BME280;16074;42.708;23.312;2022-07-23T03:32:35;95273.47;;;20.55;66.17
788;BME280;16074;42.708;23.312;2022-07-23T03:35:04;95275.44;;;20.48;66.00
788;BME280;16074;42.708;23.312;2022-07-23T03:37:42;95280.41;;;20.44;66.61
788;BME280;16074;42.708;23.312;2022-07-23T03:40:12;95289.13;;;20.51;66.54
788;BME280;16074;42.708;23.312;2022-07-23T03:42:41;95287.41;;;20.57;66.48
788;BME280;16074;42.708;23.312;2022-07-23T03:45:10;95283.31;;;20.54;66.50
788;BME280;16074;42.708;23.312;2022-07-23T03:47:38;95282.75;;;20.52;66.25
788;BME280;16074;42.708;23.312;2022-07-23T03:50:07;95279.84;;;20.54;66.70
788;BME280;16074;42.708;23.312;2022-07-23T03:52:35;95282.88;;;20.46;66.71
788;BME280;16074;42.708;23.312;2022-07-23T03:55:06;95287.97;;;20.47;66.93
788;BME280;16074;42.708;23.312;2022-07-23T03:57:36;95274.75;;;20.41;67.12
788;BME280;16074;42.708;23.312;2022-07-23T04:00:06;95283.47;;;20.37;67.18
788;BME280;16074;42.708;23.312;2022-07-23T04:02:39;95283.09;;;20.44;67.17
788;BME280;16074;42.708;23.312;2022-07-23T04:05:09;95278.34;;;20.35;66.79
788;BME280;16074;42.708;23.312;2022-07-23T04:07:39;95285.97;;;20.09;67.75
788;BME280;16074;42.708;23.312;2022-07-23T04:10:09;95291.78;;;20.17;67.58
788;BME280;16074;42.708;23.312;2022-07-23T04:12:37;95289.81;;;20.24;67.16
788;BME280;16074;42.708;23.312;2022-07-23T04:15:07;95289.25;;;20.34;66.98
788;BME280;16074;42.708;23.312;2022-07-23T04:17:36;95287.63;;;20.33;67.30
788;BME280;16074;42.708;23.312;2022-07-23T04:20:05;95290.75;;;20.30;67.26
788;BME280;16074;42.708;23.312;2022-07-23T04:22:41;95291.22;;;20.38;67.22
788;BME280;16074;42.708;23.312;2022-07-23T04:25:11;95292.84;;;20.50;67.78
788;BME280;16074;42.708;23.312;2022-07-23T04:27:40;95291.13;;;20.56;67.54
788;BME280;16074;42.708;23.312;2022-07-23T04:30:10;95295.75;;;20.60;67.31
788;BME280;16074;42.708;23.312;2022-07-23T04:32:39;95295.63;;;20.67;67.27
788;BME280;16074;42.708;23.312;2022-07-23T04:35:17;95295.25;;;20.75;67.39
788;BME280;16074;42.708;23.312;2022-07-23T04:37:45;95294.94;;;20.83;67.39
788;BME280;16074;42.708;23.312;2022-07-23T04:40:16;95297.81;;;20.93;66.79
788;BME280;16074;42.708;23.312;2022-07-23T04:42:45;95293.78;;;20.90;66.11
788;BME280;16074;42.708;23.312;2022-07-23T04:45:13;95291.22;;;20.95;66.36
788;BME280;16074;42.708;23.312;2022-07-23T04:47:43;95303.38;;;21.03;66.94
788;BME280;16074;42.708;23.312;2022-07-23T04:50:12;95307.88;;;21.02;66.45
788;BME280;16074;42.708;23.312;2022-07-23T04:52:44;95306.63;;;21.05;66.36
788;BME280;16074;42.708;23.312;2022-07-23T04:55:12;95301.72;;;21.13;66.11
788;BME280;16074;42.708;23.312;2022-07-23T04:57:42;95305.06;;;21.20;65.76
788;BME280;16074;42.708;23.312;2022-07-23T05:00:11;95304.13;;;21.26;65.41
788;BME280;16074;42.708;23.312;2022-07-23T05:02:40;95303.56;;;21.24;65.08
788;BME280;16074;42.708;23.312;2022-07-23T05:05:09;95303.22;;;21.21;64.76
788;BME280;16074;42.708;23.312;2022-07-23T05:07:37;95299.94;;;21.30;65.15
788;BME280;16074;42.708;23.312;2022-07-23T05:10:05;95302.50;;;21.25;65.03
788;BME280;16074;42.708;23.312;2022-07-23T05:12:34;95304.34;;;21.36;65.89
788;BME280;16074;42.708;23.312;2022-07-23T05:15:04;95310.34;;;21.43;65.17
788;BME280;16074;42.708;23.312;2022-07-23T05:17:33;95306.25;;;21.52;63.91
788;BME280;16074;42.708;23.312;2022-07-23T05:20:05;95309.13;;;21.62;63.85
788;BME280;16074;42.708;23.312;2022-07-23T05:22:34;95312.28;;;21.59;64.38
788;BME280;16074;42.708;23.312;2022-07-23T05:25:02;95305.41;;;21.63;64.01
788;BME280;16074;42.708;23.312;2022-07-23T05:27:32;95307.03;;;21.64;63.95
788;BME280;16074;42.708;23.312;2022-07-23T05:30:00;95304.69;;;21.68;63.57
788;BME280;16074;42.708;23.312;2022-07-23T05:32:32;95311.31;;;21.65;62.64
788;BME280;16074;42.708;23.312;2022-07-23T05:35:10;95308.16;;;21.68;63.02
788;BME280;16074;42.708;23.312;2022-07-23T05:37:45;95308.34;;;21.78;62.80
788;BME280;16074;42.708;23.312;2022-07-23T05:40:14;95311.13;;;21.83;61.20
788;BME280;16074;42.708;23.312;2022-07-23T05:42:43;95311.41;;;21.98;61.05
788;BME280;16074;42.708;23.312;2022-07-23T05:45:11;95314.56;;;22.11;60.87
788;BME280;16074;42.708;23.312;2022-07-23T05:47:45;95312.38;;;22.25;60.47
788;BME280;16074;42.708;23.312;2022-07-23T05:50:21;95313.16;;;22.37;60.16
788;BME280;16074;42.708;23.312;2022-07-23T05:52:56;95313.13;;;22.53;59.92
788;BME280;16074;42.708;23.312;2022-07-23T05:55:45;95309.88;;;22.68;59.47
788;BME280;16074;42.708;23.312;2022-07-23T06:00:41;95310.09;;;22.83;58.30
788;BME280;16074;42.708;23.312;2022-07-23T06:03:11;95304.56;;;22.89;58.31
788;BME280;16074;42.708;23.312;2022-07-23T06:05:39;95302.50;;;22.96;57.79
788;BME280;16074;42.708;23.312;2022-07-23T06:08:08;95302.56;;;23.01;57.96
788;BME280;16074;42.708;23.312;2022-07-23T06:10:36;95296.81;;;23.09;57.99
788;BME280;16074;42.708;23.312;2022-07-23T06:13:05;95293.84;;;23.27;57.58
788;BME280;16074;42.708;23.312;2022-07-23T06:15:33;95301.84;;;23.48;57.66
788;BME280;16074;42.708;23.312;2022-07-23T06:18:01;95301.91;;;23.53;57.82
788;BME280;16074;42.708;23.312;2022-07-23T06:20:30;95298.34;;;23.69;57.79
788;BME280;16074;42.708;23.312;2022-07-23T06:22:59;95305.38;;;23.75;56.34
788;BME280;16074;42.708;23.312;2022-07-23T06:25:28;95297.41;;;23.80;55.38
788;BME280;16074;42.708;23.312;2022-07-23T06:27:56;95294.63;;;23.97;56.07
788;BME280;16074;42.708;23.312;2022-07-23T06:30:26;95295.06;;;24.15;56.54
788;BME280;16074;42.708;23.312;2022-07-23T06:32:54;95292.25;;;24.31;55.99
788;BME280;16074;42.708;23.312;2022-07-23T06:35:22;95293.69;;;24.44;56.02
788;BME280;16074;42.708;23.312;2022-07-23T06:37:52;95293.03;;;24.58;55.75
788;BME280;16074;42.708;23.312;2022-07-23T06:40:21;95299.84;;;24.76;54.49
788;BME280;16074;42.708;23.312;2022-07-23T06:42:50;95295.38;;;24.91;53.95
788;BME280;16074;42.708;23.312;2022-07-23T06:45:22;95298.69;;;25.03;53.57
788;BME280;16074;42.708;23.312;2022-07-23T06:47:50;95298.25;;;25.16;53.23
788;BME280;16074;42.708;23.312;2022-07-23T06:50:18;95288.06;;;25.28;51.95
788;BME280;16074;42.708;23.312;2022-07-23T06:52:48;95297.22;;;25.32;50.91
788;BME280;16074;42.708;23.312;2022-07-23T06:55:18;95295.41;;;25.43;50.30
788;BME280;16074;42.708;23.312;2022-07-23T06:57:46;95281.41;;;25.50;50.07
788;BME280;16074;42.708;23.312;2022-07-23T07:00:15;95294.69;;;25.67;49.91
788;BME280;16074;42.708;23.312;2022-07-23T07:02:44;95289.56;;;25.75;49.19
788;BME280;16074;42.708;23.312;2022-07-23T07:05:12;95286.94;;;25.90;49.07
788;BME280;16074;42.708;23.312;2022-07-23T07:07:40;95284.28;;;26.00;48.15
788;BME280;16074;42.708;23.312;2022-07-23T07:10:09;95282.66;;;26.19;48.51
788;BME280;16074;42.708;23.312;2022-07-23T07:12:43;95282.69;;;26.39;47.89
788;BME280;16074;42.708;23.312;2022-07-23T07:15:11;95274.09;;;26.52;47.42
788;BME280;16074;42.708;23.312;2022-07-23T07:17:40;95280.81;;;26.70;47.33
788;BME280;16074;42.708;23.312;2022-07-23T07:20:09;95278.88;;;26.85;46.85
788;BME280;16074;42.708;23.312;2022-07-23T07:22:38;95266.16;;;27.05;46.00
788;BME280;16074;42.708;23.312;2022-07-23T07:25:07;95266.69;;;27.22;45.26
788;BME280;16074;42.708;23.312;2022-07-23T07:27:35;95272.78;;;27.43;44.94
788;BME280;16074;42.708;23.312;2022-07-23T07:30:07;95264.38;;;27.49;43.68
788;BME280;16074;42.708;23.312;2022-07-23T07:32:35;95264.06;;;27.71;43.86
788;BME280;16074;42.708;23.312;2022-07-23T07:35:23;95265.28;;;27.93;42.82
788;BME280;16074;42.708;23.312;2022-07-23T07:37:51;95260.78;;;28.12;42.45
788;BME280;16074;42.708;23.312;2022-07-23T07:40:19;95268.19;;;28.40;42.43
788;BME280;16074;42.708;23.312;2022-07-23T07:42:50;95264.88;;;28.76;42.39
788;BME280;16074;42.708;23.312;2022-07-23T07:45:21;95263.81;;;29.06;40.63
788;BME280;16074;42.708;23.312;2022-07-23T07:47:50;95265.75;;;29.47;40.42
788;BME280;16074;42.708;23.312;2022-07-23T07:50:19;95262.47;;;29.92;39.90
788;BME280;16074;42.708;23.312;2022-07-23T07:52:48;95257.72;;;30.21;38.00
788;BME280;16074;42.708;23.312;2022-07-23T07:55:17;95260.03;;;30.64;37.35
788;BME280;16074;42.708;23.312;2022-07-23T07:57:45;95250.28;;;30.63;36.97
788;BME280;16074;42.708;23.312;2022-07-23T08:00:15;95250.03;;;30.91;37.41
788;BME280;16074;42.708;23.312;2022-07-23T08:02:49;95252.00;;;31.18;36.39
788;BME280;16074;42.708;23.312;2022-07-23T08:05:19;95258.63;;;31.52;36.20
788;BME280;16074;42.708;23.312;2022-07-23T08:07:53;95251.41;;;31.75;36.51
788;BME280;16074;42.708;23.312;2022-07-23T08:10:22;95246.06;;;31.70;35.43
788;BME280;16074;42.708;23.312;2022-07-23T08:12:52;95262.72;;;31.90;34.96
788;BME280;16074;42.708;23.312;2022-07-23T08:15:22;95250.72;;;32.18;34.75
788;BME280;16074;42.708;23.312;2022-07-23T08:17:52;95242.06;;;32.38;34.45
788;BME280;16074;42.708;23.312;2022-07-23T08:20:22;95244.88;;;32.68;34.20
788;BME280;16074;42.708;23.312;2022-07-23T08:22:53;95247.56;;;32.90;34.37
788;BME280;16074;42.708;23.312;2022-07-23T08:25:23;95246.69;;;33.03;34.15
788;BME280;16074;42.708;23.312;2022-07-23T08:27:52;95247.34;;;33.47;33.87
788;BME280;16074;42.708;23.312;2022-07-23T08:30:20;95239.50;;;33.46;33.82
788;BME280;16074;42.708;23.312;2022-07-23T08:32:55;95237.63;;;33.63;33.35
788;BME280;16074;42.708;23.312;2022-07-23T08:35:26;95247.50;;;33.90;33.02
788;BME280;16074;42.708;23.312;2022-07-23T08:37:55;95242.56;;;34.09;32.45
788;BME280;16074;42.708;23.312;2022-07-23T08:40:25;95238.09;;;34.38;32.61
788;BME280;16074;42.708;23.312;2022-07-23T08:42:54;95241.78;;;34.50;31.77
788;BME280;16074;42.708;23.312;2022-07-23T08:45:24;95232.94;;;34.70;32.79
788;BME280;16074;42.708;23.312;2022-07-23T08:47:56;95234.22;;;34.81;31.92
788;BME280;16074;42.708;23.312;2022-07-23T08:50:29;95229.47;;;35.07;31.76
788;BME280;16074;42.708;23.312;2022-07-23T08:52:58;95231.53;;;35.27;30.45
788;BME280;16074;42.708;23.312;2022-07-23T08:55:29;95225.28;;;35.56;30.38
788;BME280;16074;42.708;23.312;2022-07-23T08:57:57;95226.47;;;35.75;29.92
788;BME280;16074;42.708;23.312;2022-07-23T09:00:25;95223.38;;;35.85;29.18
788;BME280;16074;42.708;23.312;2022-07-23T09:02:55;95217.06;;;36.13;29.28
788;BME280;16074;42.708;23.312;2022-07-23T09:05:23;95222.16;;;36.23;29.73
788;BME280;16074;42.708;23.312;2022-07-23T09:08:08;95220.66;;;36.26;29.04
788;BME280;16074;42.708;23.312;2022-07-23T09:10:47;95215.56;;;36.57;28.62
788;BME280;16074;42.708;23.312;2022-07-23T09:13:30;95223.22;;;36.51;28.53
788;BME280;16074;42.708;23.312;2022-07-23T09:16:00;95214.03;;;36.47;28.29
788;BME280;16074;42.708;23.312;2022-07-23T09:18:36;95218.63;;;36.76;28.11
788;BME280;16074;42.708;23.312;2022-07-23T09:21:10;95216.13;;;36.09;27.98
788;BME280;16074;42.708;23.312;2022-07-23T09:23:41;95221.38;;;35.94;28.13
788;BME280;16074;42.708;23.312;2022-07-23T09:26:37;95214.81;;;36.15;28.22
788;BME280;16074;42.708;23.312;2022-07-23T09:29:09;95215.25;;;36.38;28.15
788;BME280;16074;42.708;23.312;2022-07-23T09:31:46;95211.69;;;36.58;27.47
788;BME280;16074;42.708;23.312;2022-07-23T09:34:18;95210.03;;;36.65;26.80
788;BME280;16074;42.708;23.312;2022-07-23T09:36:50;95198.72;;;36.99;27.04
788;BME280;16074;42.708;23.312;2022-07-23T09:39:25;95206.28;;;37.14;26.56
788;BME280;16074;42.708;23.312;2022-07-23T09:41:54;95207.75;;;37.11;25.91
788;BME280;16074;42.708;23.312;2022-07-23T09:44:23;95193.06;;;37.28;25.79
788;BME280;16074;42.708;23.312;2022-07-23T09:46:58;95192.41;;;37.67;25.72
788;BME280;16074;42.708;23.312;2022-07-23T09:49:28;95189.44;;;37.84;24.45
788;BME280;16074;42.708;23.312;2022-07-23T09:51:58;95189.19;;;37.65;23.97
788;BME280;16074;42.708;23.312;2022-07-23T09:54:33;95191.13;;;37.88;24.79
788;BME280;16074;42.708;23.312;2022-07-23T09:57:06;95184.91;;;38.15;24.91
788;BME280;16074;42.708;23.312;2022-07-23T09:59:38;95184.31;;;38.22;24.73
788;BME280;16074;42.708;23.312;2022-07-23T10:02:08;95179.09;;;38.44;24.24
788;BME280;16074;42.708;23.312;2022-07-23T10:05:05;95174.78;;;38.70;23.82
788;BME280;16074;42.708;23.312;2022-07-23T10:08:04;95163.19;;;39.08;22.96
788;BME280;16074;42.708;23.312;2022-07-23T10:10:54;95162.16;;;39.43;23.25
788;BME280;16074;42.708;23.312;2022-07-23T10:13:38;95161.19;;;39.66;22.73
788;BME280;16074;42.708;23.312;2022-07-23T10:16:35;95165.81;;;39.16;22.18
788;BME280;16074;42.708;23.312;2022-07-23T10:19:03;95162.53;;;39.26;22.81
788;BME280;16074;42.708;23.312;2022-07-23T10:21:39;95169.69;;;39.15;22.29
788;BME280;16074;42.708;23.312;2022-07-23T10:24:15;95166.25;;;39.18;22.19
788;BME280;16074;42.708;23.312;2022-07-23T10:26:54;95160.38;;;39.51;21.13
788;BME280;16074;42.708;23.312;2022-07-23T10:29:37;95157.81;;;39.92;21.11
788;BME280;16074;42.708;23.312;2022-07-23T10:32:17;95159.16;;;40.51;21.14
788;BME280;16074;42.708;23.312;2022-07-23T10:34:55;95149.13;;;41.22;19.92
788;BME280;16074;42.708;23.312;2022-07-23T10:37:31;95155.94;;;41.54;19.90
788;BME280;16074;42.708;23.312;2022-07-23T10:40:12;95151.63;;;41.79;19.33
788;BME280;16074;42.708;23.312;2022-07-23T10:42:40;95145.41;;;42.12;19.22
788;BME280;16074;42.708;23.312;2022-07-23T10:45:26;95132.00;;;42.14;19.70
788;BME280;16074;42.708;23.312;2022-07-23T10:47:55;95138.19;;;42.66;19.02
788;BME280;16074;42.708;23.312;2022-07-23T10:50:26;95133.09;;;43.08;18.72
788;BME280;16074;42.708;23.312;2022-07-23T10:53:14;95132.47;;;42.48;18.12
788;BME280;16074;42.708;23.312;2022-07-23T10:55:49;95125.63;;;43.12;17.53
788;BME280;16074;42.708;23.312;2022-07-23T10:58:25;95118.38;;;43.37;18.05
788;BME280;16074;42.708;23.312;2022-07-23T11:01:33;95122.13;;;44.15;16.76
788;BME280;16074;42.708;23.312;2022-07-23T11:04:03;95111.66;;;44.66;16.19
788;BME280;16074;42.708;23.312;2022-07-23T11:07:06;95115.19;;;44.56;15.63
788;BME280;16074;42.708;23.312;2022-07-23T11:09:40;95110.59;;;45.09;15.31
788;BME280;16074;42.708;23.312;2022-07-23T11:12:34;95112.59;;;45.57;15.99
788;BME280;16074;42.708;23.312;2022-07-23T11:15:07;95100.66;;;45.88;15.87
788;BME280;16074;42.708;23.312;2022-07-23T11:17:37;95104.25;;;45.82;16.14
788;BME280;16074;42.708;23.312;2022-07-23T11:20:17;95107.41;;;45.77;15.41
788;BME280;16074;42.708;23.312;2022-07-23T11:22:51;95095.00;;;46.23;15.76
788;BME280;16074;42.708;23.312;2022-07-23T11:25:33;95095.13;;;45.81;13.50
788;BME280;16074;42.708;23.312;2022-07-23T11:28:13;95094.84;;;46.65;14.13
788;BME280;16074;42.708;23.312;2022-07-23T11:30:43;95087.34;;;47.16;13.77
788;BME280;16074;42.708;23.312;2022-07-23T11:33:17;95089.28;;;46.65;13.50
788;BME280;16074;42.708;23.312;2022-07-23T11:35:47;95081.72;;;46.69;13.89
788;BME280;16074;42.708;23.312;2022-07-23T11:38:17;95077.72;;;47.31;13.29
788;BME280;16074;42.708;23.312;2022-07-23T11:40:50;95076.47;;;46.78;13.82
788;BME280;16074;42.708;23.312;2022-07-23T11:43:21;95071.47;;;46.52;14.30
788;BME280;16074;42.708;23.312;2022-07-23T11:45:52;95067.19;;;47.02;14.14
788;BME280;16074;42.708;23.312;2022-07-23T11:48:22;95061.25;;;47.47;13.74
788;BME280;16074;42.708;23.312;2022-07-23T11:50:51;95052.84;;;47.54;14.15
788;BME280;16074;42.708;23.312;2022-07-23T11:53:23;95057.41;;;47.34;13.86
788;BME280;16074;42.708;23.312;2022-07-23T11:55:53;95057.22;;;47.92;13.84
788;BME280;16074;42.708;23.312;2022-07-23T11:58:22;95063.75;;;48.49;13.93
788;BME280;16074;42.708;23.312;2022-07-23T12:00:50;95058.47;;;48.54;13.39
788;BME280;16074;42.708;23.312;2022-07-23T12:03:19;95064.78;;;48.62;13.00
788;BME280;16074;42.708;23.312;2022-07-23T12:05:48;95053.97;;;47.63;13.54
788;BME280;16074;42.708;23.312;2022-07-23T12:08:16;95058.69;;;48.40;12.84
788;BME280;16074;42.708;23.312;2022-07-23T12:10:44;95048.09;;;48.25;12.75
788;BME280;16074;42.708;23.312;2022-07-23T12:13:16;95044.34;;;47.68;13.42
788;BME280;16074;42.708;23.312;2022-07-23T12:15:46;95039.44;;;47.79;13.45
788;BME280;16074;42.708;23.312;2022-07-23T12:18:17;95038.72;;;48.12;14.15
788;BME280;16074;42.708;23.312;2022-07-23T12:20:48;95034.22;;;47.84;14.47
788;BME280;16074;42.708;23.312;2022-07-23T12:23:18;95035.94;;;48.72;13.57
788;BME280;16074;42.708;23.312;2022-07-23T12:25:48;95032.88;;;49.15;13.12
788;BME280;16074;42.708;23.312;2022-07-23T12:28:19;95043.91;;;49.49;13.64
788;BME280;16074;42.708;23.312;2022-07-23T12:30:49;95036.09;;;49.83;12.46
788;BME280;16074;42.708;23.312;2022-07-23T12:33:22;95033.28;;;49.14;12.44
788;BME280;16074;42.708;23.312;2022-07-23T12:35:52;95027.59;;;49.67;12.49
788;BME280;16074;42.708;23.312;2022-07-23T12:38:23;95035.00;;;50.19;12.19
788;BME280;16074;42.708;23.312;2022-07-23T12:40:53;95027.25;;;50.07;11.40
788;BME280;16074;42.708;23.312;2022-07-23T12:43:25;95028.75;;;50.50;12.10
788;BME280;16074;42.708;23.312;2022-07-23T12:45:54;95022.50;;;50.98;11.98
788;BME280;16074;42.708;23.312;2022-07-23T12:48:24;95011.38;;;51.10;12.43
788;BME280;16074;42.708;23.312;2022-07-23T12:50:55;95014.28;;;50.87;11.86
788;BME280;16074;42.708;23.312;2022-07-23T12:53:26;95019.03;;;50.55;11.98
788;BME280;16074;42.708;23.312;2022-07-23T12:56:04;95016.31;;;50.87;11.84
788;BME280;16074;42.708;23.312;2022-07-23T12:58:44;95018.16;;;50.93;11.43
788;BME280;16074;42.708;23.312;2022-07-23T13:01:25;95013.19;;;51.01;11.38
788;BME280;16074;42.708;23.312;2022-07-23T13:03:57;95014.97;;;50.75;10.91
788;BME280;16074;42.708;23.312;2022-07-23T13:06:26;95005.19;;;50.67;10.84
788;BME280;16074;42.708;23.312;2022-07-23T13:08:55;95004.94;;;50.94;11.30
788;BME280;16074;42.708;23.312;2022-07-23T13:11:23;95001.47;;;51.22;11.72
788;BME280;16074;42.708;23.312;2022-07-23T13:13:53;95006.81;;;51.32;12.10
788;BME280;16074;42.708;23.312;2022-07-23T13:16:21;95009.97;;;51.66;11.60
788;BME280;16074;42.708;23.312;2022-07-23T13:18:54;95006.81;;;51.92;11.67
788;BME280;16074;42.708;23.312;2022-07-23T13:21:25;95010.13;;;52.44;11.23
788;BME280;16074;42.708;23.312;2022-07-23T13:23:54;95002.69;;;52.25;11.41
788;BME280;16074;42.708;23.312;2022-07-23T13:26:23;95003.53;;;51.66;10.72
788;BME280;16074;42.708;23.312;2022-07-23T13:28:53;94992.78;;;51.32;11.03
788;BME280;16074;42.708;23.312;2022-07-23T13:31:21;94995.78;;;51.09;11.50
788;BME280;16074;42.708;23.312;2022-07-23T13:33:50;94991.72;;;50.04;10.56